createdAt,value
2023-03-28T00:02:06.983Z,7.80
2023-03-28T00:04:37.555Z,7.80
2023-03-28T00:07:06.667Z,7.90
2023-03-28T00:09:35.417Z,7.80
2023-03-28T00:12:03.828Z,7.70
2023-03-28T00:14:35.576Z,7.70
2023-03-28T00:17:07.581Z,7.80
2023-03-28T00:19:40.764Z,7.70
2023-03-28T00:22:09.365Z,7.70
2023-03-28T00:24:38.930Z,7.70
2023-03-28T00:27:08.320Z,7.80
2023-03-28T00:29:38.133Z,7.60
2023-03-28T00:32:07.073Z,7.60
2023-03-28T00:34:35.456Z,7.60
2023-03-28T00:37:04.781Z,7.60
2023-03-28T00:39:33.335Z,7.60
2023-03-28T00:42:03.448Z,7.50
2023-03-28T00:44:53.741Z,7.50
2023-03-28T00:47:44.982Z,7.50
2023-03-28T00:50:20.220Z,7.50
2023-03-28T00:52:54.521Z,7.50
2023-03-28T00:55:32.059Z,7.50
2023-03-28T00:58:01.199Z,7.40
2023-03-28T01:00:32.858Z,7.40
2023-03-28T01:03:02.609Z,7.40
2023-03-28T01:05:35.390Z,7.40
2023-03-28T01:08:09.909Z,7.30
2023-03-28T01:10:38.953Z,7.40
2023-03-28T01:13:09.449Z,7.30
2023-03-28T01:15:39.288Z,7.30
2023-03-28T01:18:11.374Z,7.30
2023-03-28T01:21:28.690Z,7.20
2023-03-28T01:24:34.044Z,7.20
2023-03-28T01:27:08.228Z,7.20
2023-03-28T01:30:34.115Z,7.20
2023-03-28T01:34:24.653Z,7.20
2023-03-28T01:37:15.795Z,7.10
2023-03-28T01:40:20.108Z,7.10
2023-03-28T01:43:13.089Z,7.10
2023-03-28T01:45:52.801Z,7.10
2023-03-28T01:48:34.090Z,7.10
2023-03-28T01:51:11.737Z,7.00
2023-03-28T01:53:47.628Z,7.00
2023-03-28T01:56:23.100Z,7.00
2023-03-28T01:58:58.121Z,7.00
2023-03-28T02:01:47.138Z,7.00
2023-03-28T02:04:21.451Z,7.00
2023-03-28T02:06:59.571Z,7.00
2023-03-28T02:09:36.166Z,6.90
2023-03-28T02:12:18.089Z,6.90
2023-03-28T02:15:07.952Z,7.00
2023-03-28T02:18:05.430Z,6.90
2023-03-28T02:21:06.700Z,6.90
2023-03-28T02:24:04.872Z,6.80
2023-03-28T02:27:08.565Z,6.80
2023-03-28T02:30:11.121Z,6.80
2023-03-28T02:32:43.970Z,6.80
2023-03-28T02:35:13.120Z,6.80
2023-03-28T02:37:50.521Z,6.70
2023-03-28T02:40:48.240Z,6.70
2023-03-28T02:43:48.761Z,6.70
2023-03-28T02:46:25.068Z,6.70
2023-03-28T02:49:16.887Z,6.70
2023-03-28T02:51:53.750Z,6.60
2023-03-28T02:54:32.465Z,6.80
2023-03-28T02:57:28.365Z,6.60
2023-03-28T03:00:12.614Z,6.60
2023-03-28T03:02:43.884Z,6.70
2023-03-28T03:05:13.926Z,6.60
2023-03-28T03:07:43.245Z,6.60
2023-03-28T03:10:14.265Z,6.50
2023-03-28T03:12:46.825Z,6.50
2023-03-28T03:15:17.583Z,6.50
2023-03-28T03:17:57.118Z,6.50
2023-03-28T03:20:33.635Z,6.50
2023-03-28T03:23:02.594Z,6.50
2023-03-28T03:25:33.718Z,6.60
2023-03-28T03:28:17.597Z,6.50
2023-03-28T03:30:48.402Z,6.50
2023-03-28T03:33:55.066Z,6.40
2023-03-28T03:36:30.433Z,6.40
2023-03-28T03:39:00.805Z,6.40
2023-03-28T03:41:29.537Z,6.40
2023-03-28T03:43:57.965Z,6.40
2023-03-28T03:46:27.857Z,6.40
2023-03-28T03:48:56.352Z,6.50
2023-03-28T03:51:24.875Z,6.50
2023-03-28T03:53:58.532Z,6.30
2023-03-28T03:56:35.689Z,6.30
2023-03-28T03:59:04.188Z,6.40
2023-03-28T04:01:35.603Z,6.40
2023-03-28T04:04:21.144Z,6.40
2023-03-28T04:07:12.963Z,6.30
2023-03-28T04:09:41.662Z,6.30
2023-03-28T04:12:13.353Z,6.30
2023-03-28T04:14:48.036Z,6.20
2023-03-28T04:17:50.340Z,6.20
2023-03-28T04:20:22.476Z,6.20
2023-03-28T04:23:10.417Z,6.20
2023-03-28T04:25:42.468Z,6.20
2023-03-28T04:28:16.845Z,6.20
2023-03-28T04:31:01.654Z,6.10
2023-03-28T04:34:06.878Z,6.10
2023-03-28T04:36:41.150Z,6.10
2023-03-28T04:39:09.661Z,6.10
2023-03-28T04:42:05.986Z,6.10
2023-03-28T04:45:08.491Z,6.10
2023-03-28T04:47:39.955Z,6.00
2023-03-28T04:50:13.674Z,6.00
2023-03-28T04:52:42.472Z,6.10
2023-03-28T04:55:11.449Z,6.00
2023-03-28T04:57:41.125Z,5.80
2023-03-28T05:00:16.710Z,5.90
2023-03-28T05:03:05.209Z,5.90
2023-03-28T05:05:46.448Z,5.90
2023-03-28T05:08:17.485Z,5.90
2023-03-28T05:10:46.989Z,5.90
2023-03-28T05:13:16.301Z,6.10
2023-03-28T05:15:51.600Z,5.90
2023-03-28T05:18:35.900Z,5.90
2023-03-28T05:21:07.316Z,5.90
2023-03-28T05:23:36.095Z,5.80
2023-03-28T05:26:12.110Z,5.80
2023-03-28T05:28:40.957Z,5.80
2023-03-28T05:31:09.369Z,5.80
2023-03-28T05:33:38.391Z,5.80
2023-03-28T05:36:10.590Z,5.80
2023-03-28T05:38:39.124Z,5.80
2023-03-28T05:41:13.287Z,5.80
2023-03-28T05:43:41.670Z,5.80
2023-03-28T05:46:10.619Z,5.70
2023-03-28T05:48:43.487Z,5.90
2023-03-28T05:51:19.964Z,5.70
2023-03-28T05:53:48.873Z,5.80
2023-03-28T05:56:17.387Z,5.70
2023-03-28T05:58:45.793Z,5.70
2023-03-28T06:01:18.491Z,5.70
2023-03-28T06:03:52.432Z,5.80
2023-03-28T06:06:22.544Z,5.60
2023-03-28T06:08:51.176Z,5.60
2023-03-28T06:11:19.591Z,5.60
2023-03-28T06:14:04.983Z,5.60
2023-03-28T06:16:33.447Z,5.70
2023-03-28T06:19:16.465Z,5.70
2023-03-28T06:21:51.695Z,5.60
2023-03-28T06:24:20.708Z,5.60
2023-03-28T06:26:49.294Z,5.60
2023-03-28T06:29:21.745Z,5.50
2023-03-28T06:31:53.445Z,5.50
2023-03-28T06:34:22.279Z,5.50
2023-03-28T06:37:01.749Z,5.50
2023-03-28T06:39:43.778Z,5.50
2023-03-28T06:42:12.281Z,5.50
2023-03-28T06:44:52.657Z,5.50
2023-03-28T06:47:33.335Z,5.50
2023-03-28T06:50:01.730Z,5.60
2023-03-28T06:53:06.923Z,5.60
2023-03-28T06:55:36.896Z,5.50
2023-03-28T06:58:05.451Z,5.50
2023-03-28T07:00:43.872Z,5.50
2023-03-28T07:03:24.131Z,5.50
2023-03-28T07:05:52.714Z,5.50
2023-03-28T07:08:22.636Z,5.50
2023-03-28T07:10:51.344Z,5.60
2023-03-28T07:13:19.979Z,5.60
2023-03-28T07:16:06.279Z,5.70
2023-03-28T07:18:35.907Z,5.70
2023-03-28T07:21:08.405Z,5.70
2023-03-28T07:23:39.755Z,5.70
2023-03-28T07:26:09.722Z,5.70
2023-03-28T07:28:38.383Z,5.80
2023-03-28T07:31:07.576Z,5.80
2023-03-28T07:33:38.468Z,5.80
2023-03-28T07:36:15.155Z,5.90
2023-03-28T07:38:48.940Z,5.90
2023-03-28T07:41:19.160Z,6.00
2023-03-28T07:43:47.596Z,6.00
2023-03-28T07:46:16.910Z,6.10
2023-03-28T07:48:46.662Z,6.00
2023-03-28T07:51:15.731Z,6.10
2023-03-28T07:53:46.489Z,6.10
2023-03-28T07:56:15.688Z,6.30
2023-03-28T07:59:13.932Z,6.20
2023-03-28T08:01:46.925Z,6.30
2023-03-28T08:04:15.993Z,6.50
2023-03-28T08:06:58.054Z,6.40
2023-03-28T08:09:28.431Z,6.40
2023-03-28T08:12:22.894Z,6.40
2023-03-28T08:14:51.893Z,6.50
2023-03-28T08:17:24.540Z,6.50
2023-03-28T08:19:54.394Z,6.70
2023-03-28T08:22:42.928Z,6.60
2023-03-28T08:25:31.298Z,6.70
2023-03-28T08:28:01.065Z,6.70
2023-03-28T08:30:29.725Z,6.80
2023-03-28T08:33:04.475Z,6.90
2023-03-28T08:35:34.101Z,6.90
2023-03-28T08:38:10.486Z,7.00
2023-03-28T08:40:48.424Z,7.10
2023-03-28T08:43:50.152Z,6.90
2023-03-28T08:46:23.607Z,7.10
2023-03-28T08:48:54.759Z,7.20
2023-03-28T08:51:28.144Z,7.20
2023-03-28T08:54:09.282Z,7.20
2023-03-28T08:56:46.761Z,7.40
2023-03-28T08:59:17.638Z,7.30
2023-03-28T09:01:47.263Z,7.40
2023-03-28T09:04:30.598Z,7.40
2023-03-28T09:07:17.668Z,7.50
2023-03-28T09:09:57.163Z,7.60
2023-03-28T09:12:55.001Z,7.60
2023-03-28T09:15:39.738Z,7.70
2023-03-28T09:18:39.483Z,7.70
2023-03-28T09:21:20.445Z,7.70
2023-03-28T09:24:15.394Z,7.80
2023-03-28T09:27:02.431Z,7.90
2023-03-28T09:29:38.474Z,8.20
2023-03-28T09:32:16.881Z,8.00
2023-03-28T09:34:50.827Z,8.10
2023-03-28T09:37:32.330Z,8.10
2023-03-28T09:40:13.227Z,8.20
2023-03-28T09:43:05.887Z,8.30
2023-03-28T09:45:54.982Z,8.30
2023-03-28T09:48:48.217Z,8.60
2023-03-28T09:51:21.109Z,8.50
2023-03-28T09:53:49.760Z,8.70
2023-03-28T09:56:27.634Z,8.80
2023-03-28T09:59:02.921Z,8.60
2023-03-28T10:01:51.570Z,8.60
2023-03-28T10:04:37.598Z,8.90
2023-03-28T10:07:36.938Z,8.70
2023-03-28T10:10:25.737Z,8.80
2023-03-28T10:13:06.272Z,8.70
2023-03-28T10:15:43.772Z,8.80
2023-03-28T10:18:44.460Z,8.80
2023-03-28T10:21:27.041Z,9.10
2023-03-28T10:24:11.997Z,9.10
2023-03-28T10:26:41.593Z,8.90
2023-03-28T10:29:10.345Z,9.00
2023-03-28T10:31:41.976Z,8.90
2023-03-28T10:34:30.516Z,9.00
2023-03-28T10:37:27.502Z,9.10
2023-03-28T10:40:30.139Z,9.10
2023-03-28T10:43:15.965Z,9.20
2023-03-28T10:45:51.038Z,9.40
2023-03-28T10:48:34.899Z,9.40
2023-03-28T10:51:19.596Z,9.30
2023-03-28T10:54:09.839Z,9.50
2023-03-28T10:56:43.178Z,9.50
2023-03-28T10:59:31.584Z,9.40
2023-03-28T11:02:29.791Z,9.50
2023-03-28T11:05:03.502Z,9.60
2023-03-28T11:07:44.595Z,9.70
2023-03-28T11:10:48.302Z,9.60
2023-03-28T11:13:31.647Z,9.70
2023-03-28T11:16:11.719Z,9.80
2023-03-28T11:19:12.371Z,9.80
2023-03-28T11:21:55.569Z,9.80
2023-03-28T11:24:32.767Z,9.90
2023-03-28T11:27:25.221Z,9.90
2023-03-28T11:30:06.957Z,9.90
2023-03-28T11:32:48.771Z,10.30
2023-03-28T11:35:26.642Z,10.00
2023-03-28T11:38:04.500Z,10.20
2023-03-28T11:40:52.003Z,10.10
2023-03-28T11:43:34.069Z,10.10
2023-03-28T11:46:08.977Z,10.20
2023-03-28T11:48:46.214Z,10.20
2023-03-28T11:51:24.975Z,10.20
2023-03-28T11:54:03.781Z,10.40
2023-03-28T11:56:49.299Z,10.50
2023-03-28T11:59:46.461Z,10.30
2023-03-28T12:02:36.334Z,10.40
2023-03-28T12:05:12.591Z,10.40
2023-03-28T12:07:49.561Z,10.40
2023-03-28T12:10:36.132Z,10.40
2023-03-28T12:13:16.346Z,10.50
2023-03-28T12:16:00.945Z,10.50
2023-03-28T12:18:35.612Z,10.70
2023-03-28T12:21:14.357Z,10.60
2023-03-28T12:24:02.018Z,10.60
2023-03-28T12:26:52.573Z,10.70
2023-03-28T12:29:30.675Z,10.70
2023-03-28T12:32:05.882Z,10.70
2023-03-28T12:34:41.761Z,10.80
2023-03-28T12:37:30.358Z,10.80
2023-03-28T12:40:20.712Z,10.90
2023-03-28T12:42:51.058Z,10.90
2023-03-28T12:45:29.105Z,11.00
2023-03-28T12:48:04.486Z,11.00
2023-03-28T12:50:44.873Z,11.00
2023-03-28T12:53:16.504Z,11.20
2023-03-28T12:55:49.196Z,11.10
2023-03-28T12:58:28.348Z,11.10
2023-03-28T13:01:42.996Z,11.20
2023-03-28T13:04:34.076Z,11.20
2023-03-28T13:07:18.591Z,11.20
2023-03-28T13:10:00.983Z,11.30
2023-03-28T13:12:40.566Z,11.20
2023-03-28T13:15:30.970Z,11.30
2023-03-28T13:18:33.954Z,11.30
2023-03-28T13:21:07.307Z,11.30
2023-03-28T13:23:47.269Z,11.30
2023-03-28T13:26:16.006Z,11.30
2023-03-28T13:28:51.546Z,11.30
2023-03-28T13:31:26.357Z,11.30
2023-03-28T13:34:02.003Z,11.40
2023-03-28T13:36:32.898Z,11.40
2023-03-28T13:39:22.976Z,11.40
2023-03-28T13:42:01.786Z,11.50
2023-03-28T13:44:40.870Z,11.50
2023-03-28T13:47:18.178Z,11.60
2023-03-28T13:49:52.233Z,11.50
2023-03-28T13:52:24.138Z,11.50
2023-03-28T13:54:55.102Z,11.50
2023-03-28T13:57:27.085Z,11.50
2023-03-28T13:59:59.666Z,11.50
2023-03-28T14:02:37.921Z,11.50
2023-03-28T14:05:16.793Z,11.50
2023-03-28T14:07:45.319Z,11.50
2023-03-28T14:10:29.656Z,11.60
2023-03-28T14:13:03.511Z,11.80
2023-03-28T14:15:39.093Z,11.70
2023-03-28T14:18:15.125Z,11.80
2023-03-28T14:20:45.769Z,11.70
2023-03-28T14:23:30.832Z,11.70
2023-03-28T14:26:00.567Z,11.70
2023-03-28T14:28:30.960Z,11.70
2023-03-28T14:30:59.987Z,11.70
2023-03-28T14:33:34.267Z,11.90
2023-03-28T14:36:06.292Z,11.80
2023-03-28T14:38:38.219Z,11.80
2023-03-28T14:41:13.293Z,11.90
2023-03-28T14:43:42.134Z,11.90
2023-03-28T14:46:12.042Z,12.10
2023-03-28T14:48:42.557Z,12.10
2023-03-28T14:51:15.975Z,12.00
2023-03-28T14:53:48.458Z,12.00
2023-03-28T14:56:23.694Z,12.00
2023-03-28T14:58:54.620Z,12.20
2023-03-28T15:01:24.505Z,12.00
2023-03-28T15:03:58.823Z,12.10
2023-03-28T15:06:29.605Z,12.10
2023-03-28T15:09:00.468Z,12.10
2023-03-28T15:11:33.673Z,12.10
2023-03-28T15:14:05.488Z,12.10
2023-03-28T15:16:40.806Z,12.10
2023-03-28T15:19:21.082Z,12.10
2023-03-28T15:21:56.882Z,12.10
2023-03-28T15:24:27.835Z,12.10
2023-03-28T15:26:59.943Z,12.10
2023-03-28T15:29:31.703Z,12.10
2023-03-28T15:32:05.844Z,12.20
2023-03-28T15:34:46.017Z,12.20
2023-03-28T15:37:21.922Z,12.10
2023-03-28T15:39:52.182Z,12.20
2023-03-28T15:42:37.152Z,12.10
2023-03-28T15:45:40.869Z,12.10
2023-03-28T15:48:17.790Z,12.20
2023-03-28T15:50:52.146Z,12.10
2023-03-28T15:53:23.773Z,12.20
2023-03-28T15:55:52.254Z,12.10
2023-03-28T15:58:23.299Z,12.10
2023-03-28T16:00:53.191Z,12.10
2023-03-28T16:03:35.523Z,12.10
2023-03-28T16:09:16.747Z,12.00
2023-03-28T16:11:46.877Z,12.00
2023-03-28T16:14:33.582Z,12.00
2023-03-28T16:17:25.923Z,12.00
2023-03-28T16:20:16.457Z,12.00
2023-03-28T16:22:45.596Z,12.00
2023-03-28T16:25:15.879Z,12.00
2023-03-28T16:27:44.576Z,12.00
2023-03-28T16:30:21.292Z,12.00
2023-03-28T16:32:49.850Z,12.00
2023-03-28T16:35:18.283Z,12.00
2023-03-28T16:37:47.378Z,12.00
2023-03-28T16:40:17.499Z,12.00
2023-03-28T16:42:45.907Z,12.00
2023-03-28T16:45:14.380Z,11.90
2023-03-28T16:47:42.985Z,12.00
2023-03-28T16:50:12.261Z,11.90
2023-03-28T16:52:41.794Z,11.90
2023-03-28T16:55:12.554Z,11.90
2023-03-28T16:57:42.683Z,11.90
2023-03-28T17:00:17.849Z,11.90
2023-03-28T17:02:47.178Z,11.80
2023-03-28T17:05:16.238Z,11.80
2023-03-28T17:07:44.725Z,11.80
2023-03-28T17:10:13.809Z,11.80
2023-03-28T17:12:43.734Z,11.90
2023-03-28T17:15:13.248Z,11.80
2023-03-28T17:17:41.666Z,11.70
2023-03-28T17:20:11.776Z,11.70
2023-03-28T17:22:42.501Z,11.70
2023-03-28T17:25:11.209Z,11.70
2023-03-28T17:27:40.129Z,11.70
2023-03-28T17:30:11.805Z,11.60
2023-03-28T17:32:41.348Z,11.60
2023-03-28T17:35:12.188Z,11.60
2023-03-28T17:37:41.271Z,11.60
2023-03-28T17:40:10.739Z,11.60
2023-03-28T17:42:39.248Z,11.50
2023-03-28T17:45:10.781Z,11.50
2023-03-28T17:47:39.793Z,11.50
2023-03-28T17:50:10.499Z,11.50
2023-03-28T17:52:39.547Z,11.40
2023-03-28T17:55:08.951Z,11.40
2023-03-28T17:57:37.406Z,11.40
2023-03-28T18:00:07.977Z,11.40
2023-03-28T18:02:46.141Z,11.30
2023-03-28T18:05:35.081Z,11.30
2023-03-28T18:08:03.892Z,11.30
2023-03-28T18:10:32.615Z,11.30
2023-03-28T18:13:01.548Z,11.30
2023-03-28T18:15:29.939Z,11.30
2023-03-28T18:18:01.848Z,11.40
2023-03-28T18:20:30.386Z,11.20
2023-03-28T18:22:58.892Z,11.20
2023-03-28T18:25:27.751Z,11.20
2023-03-28T18:27:59.669Z,11.20
2023-03-28T18:30:28.347Z,11.10
2023-03-28T18:32:57.147Z,11.10
2023-03-28T18:35:28.375Z,11.10
2023-03-28T18:38:01.906Z,11.20
2023-03-28T18:40:31.268Z,11.30
2023-03-28T18:42:59.801Z,11.10
2023-03-28T18:45:28.345Z,11.10
2023-03-28T18:47:56.851Z,11.20
2023-03-28T18:50:27.247Z,11.10
2023-03-28T18:52:55.857Z,11.00
2023-03-28T18:55:24.845Z,11.00
2023-03-28T18:57:53.528Z,11.00
2023-03-28T19:00:22.089Z,11.10
2023-03-28T19:02:51.147Z,11.10
2023-03-28T19:05:19.762Z,10.90
2023-03-28T19:07:49.615Z,10.90
2023-03-28T19:10:18.282Z,11.00
2023-03-28T19:12:47.167Z,10.90
2023-03-28T19:15:15.628Z,10.90
2023-03-28T19:17:44.129Z,11.00
2023-03-28T19:20:13.555Z,11.00
2023-03-28T19:22:42.639Z,10.90
2023-03-28T19:25:12.563Z,10.90
2023-03-28T19:27:42.063Z,10.90
2023-03-28T19:30:11.184Z,10.80
2023-03-28T19:32:39.651Z,10.80
2023-03-28T19:35:09.544Z,10.90
2023-03-28T19:37:38.028Z,10.80
2023-03-28T19:40:09.527Z,10.90
2023-03-28T19:42:39.382Z,10.80
2023-03-28T19:45:09.226Z,10.80
2023-03-28T19:47:37.809Z,10.80
2023-03-28T19:50:09.927Z,10.80
2023-03-28T19:52:39.644Z,10.70
2023-03-28T19:55:09.864Z,10.80
2023-03-28T19:57:40.064Z,10.70
2023-03-28T20:00:11.279Z,10.70
2023-03-28T20:02:42.586Z,10.70
2023-03-28T20:05:11.539Z,10.70
2023-03-28T20:07:40.171Z,10.70
2023-03-28T20:10:09.951Z,10.70
2023-03-28T20:12:41.082Z,10.70
2023-03-28T20:15:11.224Z,10.70
2023-03-28T20:17:39.749Z,10.70
2023-03-28T20:20:10.599Z,10.70
2023-03-28T20:22:39.095Z,10.60
2023-03-28T20:25:09.165Z,10.60
2023-03-28T20:27:39.407Z,10.60
2023-03-28T20:30:09.577Z,10.60
2023-03-28T20:32:38.158Z,10.60
2023-03-28T20:35:07.840Z,10.70
2023-03-28T20:37:36.983Z,10.50
2023-03-28T20:40:10.924Z,10.60
2023-03-28T20:42:41.226Z,10.50
2023-03-28T20:45:22.021Z,10.50
2023-03-28T20:47:55.878Z,10.50
2023-03-28T20:50:25.947Z,10.50
2023-03-28T20:52:54.702Z,10.50
2023-03-28T20:55:25.224Z,10.50
2023-03-28T20:57:55.076Z,10.50
2023-03-28T21:00:24.884Z,10.60
2023-03-28T21:02:55.206Z,10.50
2023-03-28T21:05:27.273Z,10.50
2023-03-28T21:07:57.071Z,10.50
2023-03-28T21:10:25.492Z,10.50
2023-03-28T21:12:55.339Z,10.60
2023-03-28T21:15:23.807Z,10.50
2023-03-28T21:17:53.723Z,10.60
2023-03-28T21:20:22.323Z,10.60
2023-03-28T21:22:50.935Z,10.50
2023-03-28T21:25:21.057Z,10.50
2023-03-28T21:27:49.532Z,10.50
2023-03-28T21:30:19.678Z,10.50
2023-03-28T21:32:48.689Z,10.50
2023-03-28T21:35:17.352Z,10.50
2023-03-28T21:37:46.033Z,10.50
2023-03-28T21:40:14.496Z,10.50
2023-03-28T21:42:43.464Z,10.50
2023-03-28T21:45:12.816Z,10.50
2023-03-28T21:47:42.798Z,10.50
2023-03-28T21:50:14.896Z,10.60
2023-03-28T21:52:43.592Z,10.50
2023-03-28T21:55:12.031Z,10.60
2023-03-28T21:57:40.460Z,10.60
2023-03-28T22:00:14.994Z,10.60
2023-03-28T22:02:45.520Z,10.60
2023-03-28T22:05:26.705Z,10.60
2023-03-28T22:07:57.492Z,10.60
2023-03-28T22:10:27.101Z,10.70
2023-03-28T22:12:58.775Z,10.50
2023-03-28T22:15:27.870Z,10.50
2023-03-28T22:17:59.190Z,10.50
2023-03-28T22:20:29.727Z,10.70
2023-03-28T22:23:00.570Z,10.70
2023-03-28T22:25:35.718Z,10.50
2023-03-28T22:28:05.593Z,10.60
2023-03-28T22:30:34.314Z,10.50
2023-03-28T22:33:04.835Z,10.60
2023-03-28T22:35:34.257Z,10.50
2023-03-28T22:38:02.664Z,10.50
2023-03-28T22:40:31.841Z,10.50
2023-03-28T22:43:00.599Z,10.50
2023-03-28T22:45:29.353Z,10.50
2023-03-28T22:48:00.533Z,10.40
2023-03-28T22:50:33.674Z,10.40
2023-03-28T22:53:02.317Z,10.40
2023-03-28T22:55:30.917Z,10.40
2023-03-28T22:57:59.359Z,10.40
2023-03-28T23:00:28.760Z,10.40
2023-03-28T23:02:57.606Z,10.40
2023-03-28T23:05:26.129Z,10.40
2023-03-28T23:07:55.967Z,10.50
2023-03-28T23:10:24.468Z,10.40
2023-03-28T23:12:53.216Z,10.40
2023-03-28T23:15:21.749Z,10.40
2023-03-28T23:17:50.375Z,10.40
2023-03-28T23:20:19.223Z,10.50
2023-03-28T23:22:49.628Z,10.40
2023-03-28T23:25:21.600Z,10.50
2023-03-28T23:27:50.052Z,10.40
2023-03-28T23:30:18.912Z,10.40
2023-03-28T23:32:47.567Z,10.40
2023-03-28T23:35:16.116Z,10.40
2023-03-28T23:37:44.866Z,10.40
2023-03-28T23:40:15.540Z,10.40
2023-03-28T23:42:46.440Z,10.40
2023-03-28T23:45:15.941Z,10.40
2023-03-28T23:47:45.539Z,10.40
2023-03-28T23:50:14.456Z,10.40
2023-03-28T23:52:42.877Z,10.40
2023-03-28T23:55:11.452Z,10.40
2023-03-28T23:57:46.237Z,10.30
